createdAt,value
2022-12-19T00:02:21.198Z,0.30
2022-12-19T00:04:48.718Z,0.30
2022-12-19T00:07:17.031Z,0.30
2022-12-19T00:09:44.596Z,0.30
2022-12-19T00:12:17.447Z,0.30
2022-12-19T00:14:39.714Z,0.30
2022-12-19T00:17:07.249Z,0.30
2022-12-19T00:19:34.842Z,0.40
2022-12-19T00:22:02.358Z,0.40
2022-12-19T00:24:29.882Z,0.40
2022-12-19T00:26:57.722Z,0.40
2022-12-19T00:29:25.250Z,0.40
2022-12-19T00:31:52.802Z,0.30
2022-12-19T00:34:21.123Z,0.30
2022-12-19T00:36:48.659Z,0.30
2022-12-19T00:39:16.193Z,0.40
2022-12-19T00:41:43.789Z,0.40
2022-12-19T00:44:11.293Z,0.30
2022-12-19T00:46:39.598Z,0.40
2022-12-19T00:49:07.179Z,0.30
2022-12-19T00:51:34.727Z,0.40
2022-12-19T00:54:02.327Z,0.40
2022-12-19T00:56:30.588Z,0.40
2022-12-19T00:58:58.122Z,0.30
2022-12-19T01:01:25.820Z,0.60
2022-12-19T01:04:26.748Z,0.90
2022-12-19T01:06:21.170Z,0.90
2022-12-19T01:08:49.457Z,0.80
2022-12-19T01:11:17.031Z,0.80
2022-12-19T01:13:44.564Z,0.80
2022-12-19T01:16:12.922Z,0.70
2022-12-19T01:18:41.358Z,0.70
2022-12-19T01:21:08.889Z,0.70
2022-12-19T01:23:37.182Z,0.60
2022-12-19T01:26:04.766Z,0.60
2022-12-19T01:28:32.291Z,0.60
2022-12-19T01:30:59.826Z,0.60
2022-12-19T01:33:28.159Z,0.60
2022-12-19T01:35:55.682Z,0.60
2022-12-19T01:38:23.218Z,0.60
2022-12-19T01:40:50.803Z,0.60
2022-12-19T01:43:18.326Z,0.60
2022-12-19T01:45:46.331Z,0.80
2022-12-19T01:48:17.004Z,0.90
2022-12-19T01:50:59.096Z,1.20
2022-12-19T01:53:15.485Z,1.10
2022-12-19T01:55:43.070Z,1.10
2022-12-19T01:58:10.575Z,1.10
2022-12-19T02:00:38.106Z,1.10
2022-12-19T02:03:08.693Z,1.10
2022-12-19T02:05:36.932Z,1.20
2022-12-19T02:08:04.444Z,1.10
2022-12-19T02:10:32.021Z,1.20
2022-12-19T02:13:00.337Z,1.20
2022-12-19T02:15:27.881Z,1.20
2022-12-19T02:18:04.855Z,1.20
2022-12-19T02:20:56.977Z,1.20
2022-12-19T02:23:56.027Z,1.30
2022-12-19T02:27:00.078Z,1.20
2022-12-19T02:29:46.054Z,1.30
2022-12-19T02:32:25.319Z,1.30
2022-12-19T02:35:02.218Z,1.30
2022-12-19T02:37:29.744Z,1.30
2022-12-19T02:40:07.391Z,1.40
2022-12-19T02:42:34.912Z,1.40
2022-12-19T02:45:03.246Z,1.50
2022-12-19T02:47:30.785Z,1.50
2022-12-19T02:49:58.516Z,1.50
2022-12-19T02:52:25.894Z,1.60
2022-12-19T02:54:53.464Z,1.80
2022-12-19T02:57:26.705Z,1.90
2022-12-19T03:00:05.854Z,1.90
2022-12-19T03:02:39.826Z,2.10
2022-12-19T03:05:31.272Z,2.10
2022-12-19T03:08:04.648Z,2.20
2022-12-19T03:10:35.302Z,2.20
2022-12-19T03:13:24.208Z,2.10
2022-12-19T03:15:51.752Z,2.40
2022-12-19T03:18:19.288Z,2.70
2022-12-19T03:20:59.647Z,2.50
2022-12-19T03:23:27.194Z,2.50
2022-12-19T03:25:55.729Z,2.40
2022-12-19T03:28:23.313Z,2.60
2022-12-19T03:30:50.887Z,2.80
2022-12-19T03:33:18.386Z,2.70
2022-12-19T03:35:46.706Z,2.50
2022-12-19T03:38:14.234Z,2.50
2022-12-19T03:40:41.778Z,2.50
2022-12-19T03:43:11.239Z,2.40
2022-12-19T03:45:40.405Z,2.40
2022-12-19T03:48:07.911Z,2.40
2022-12-19T03:50:35.508Z,2.60
2022-12-19T03:53:09.029Z,2.80
2022-12-19T03:55:39.582Z,2.80
2022-12-19T03:58:07.126Z,2.60
2022-12-19T04:00:34.675Z,2.60
2022-12-19T04:03:02.268Z,2.70
2022-12-19T04:05:29.773Z,2.70
2022-12-19T04:07:57.296Z,2.60
2022-12-19T04:10:25.231Z,2.60
2022-12-19T04:13:04.458Z,2.50
2022-12-19T04:15:44.288Z,2.70
2022-12-19T04:18:11.768Z,2.70
2022-12-19T04:20:39.312Z,2.60
2022-12-19T04:23:15.882Z,2.60
2022-12-19T04:25:46.304Z,2.50
2022-12-19T04:28:14.597Z,2.40
2022-12-19T04:30:42.228Z,2.40
2022-12-19T04:33:09.686Z,2.40
2022-12-19T04:35:37.263Z,2.30
2022-12-19T04:38:05.593Z,2.30
2022-12-19T04:40:37.927Z,2.30
2022-12-19T04:43:00.642Z,2.30
2022-12-19T04:45:28.215Z,2.20
2022-12-19T04:47:55.864Z,2.30
2022-12-19T04:50:24.143Z,2.20
2022-12-19T04:52:56.817Z,2.20
2022-12-19T04:55:19.241Z,2.20
2022-12-19T04:57:47.532Z,2.30
2022-12-19T05:00:15.264Z,2.30
2022-12-19T05:02:42.941Z,2.30
2022-12-19T05:05:10.344Z,2.30
2022-12-19T05:07:38.197Z,2.30
2022-12-19T05:10:05.863Z,2.40
2022-12-19T05:12:33.554Z,2.40
2022-12-19T05:15:02.148Z,2.40
2022-12-19T05:17:29.648Z,2.50
2022-12-19T05:19:57.228Z,2.70
2022-12-19T05:22:27.836Z,2.70
2022-12-19T05:24:55.421Z,2.70
2022-12-19T05:27:22.996Z,2.70
2022-12-19T05:29:50.605Z,2.70
2022-12-19T05:32:19.003Z,3.00
2022-12-19T05:34:46.539Z,2.90
2022-12-19T05:37:14.898Z,3.00
2022-12-19T05:39:42.452Z,2.90
2022-12-19T05:42:12.499Z,2.90
2022-12-19T05:44:38.419Z,2.90
2022-12-19T05:47:05.984Z,2.90
2022-12-19T05:49:34.327Z,2.90
2022-12-19T05:52:01.969Z,2.90
2022-12-19T05:54:29.538Z,3.00
2022-12-19T05:58:43.775Z,3.40
2022-12-19T06:01:14.495Z,3.70
2022-12-19T06:03:44.570Z,4.00
2022-12-19T06:06:13.327Z,4.00
2022-12-19T06:08:40.914Z,3.90
2022-12-19T06:11:08.425Z,3.80
2022-12-19T06:13:36.289Z,3.90
2022-12-19T06:16:06.945Z,3.90
2022-12-19T06:18:34.482Z,3.80
2022-12-19T06:21:09.184Z,3.70
2022-12-19T06:23:36.712Z,3.70
2022-12-19T06:26:05.011Z,3.60
2022-12-19T06:28:32.589Z,3.60
2022-12-19T06:31:00.111Z,3.60
2022-12-19T06:33:28.414Z,3.60
2022-12-19T06:36:02.330Z,3.60
2022-12-19T06:38:29.863Z,3.60
2022-12-19T06:41:16.138Z,3.60
2022-12-19T06:43:43.670Z,3.60
2022-12-19T06:46:11.242Z,3.60
2022-12-19T06:48:38.787Z,3.60
2022-12-19T06:51:06.322Z,3.70
2022-12-19T06:53:33.855Z,3.70
2022-12-19T06:56:02.215Z,3.70
2022-12-19T06:58:29.742Z,3.70
2022-12-19T07:00:57.301Z,3.70
2022-12-19T07:03:24.841Z,3.70
2022-12-19T07:05:52.348Z,3.90
2022-12-19T07:08:19.884Z,4.00
2022-12-19T07:10:47.494Z,4.20
2022-12-19T07:13:14.979Z,4.20
2022-12-19T07:15:42.516Z,4.50
2022-12-19T07:18:10.361Z,4.70
2022-12-19T07:20:43.363Z,4.60
2022-12-19T07:23:06.182Z,4.50
2022-12-19T07:25:33.746Z,4.50
2022-12-19T07:28:02.047Z,4.60
2022-12-19T07:30:30.511Z,4.60
2022-12-19T07:32:57.895Z,4.60
2022-12-19T07:35:25.446Z,4.60
2022-12-19T07:37:53.741Z,4.40
2022-12-19T07:40:21.338Z,4.40
2022-12-19T07:42:48.840Z,4.40
2022-12-19T07:45:16.365Z,4.30
2022-12-19T07:47:44.215Z,4.30
2022-12-19T07:50:11.742Z,4.20
2022-12-19T07:52:39.267Z,4.10
2022-12-19T07:55:08.799Z,4.00
2022-12-19T07:57:36.337Z,4.00
2022-12-19T08:00:03.868Z,4.20
2022-12-19T08:02:32.001Z,4.20
2022-12-19T08:05:03.289Z,4.10
2022-12-19T08:07:30.839Z,4.10
2022-12-19T08:09:58.398Z,4.10
2022-12-19T08:12:25.925Z,4.00
2022-12-19T08:14:57.124Z,4.00
2022-12-19T08:17:22.237Z,3.90
2022-12-19T08:19:49.497Z,3.90
2022-12-19T08:22:17.016Z,3.80
2022-12-19T08:24:44.592Z,3.80
2022-12-19T08:27:12.885Z,3.80
2022-12-19T08:29:40.433Z,3.70
2022-12-19T08:32:09.057Z,3.80
2022-12-19T08:34:36.575Z,3.80
2022-12-19T08:37:04.953Z,4.40
2022-12-19T08:39:33.404Z,4.40
2022-12-19T08:42:00.927Z,4.40
2022-12-19T08:44:28.463Z,4.40
2022-12-19T08:46:56.037Z,4.40
2022-12-19T08:49:23.552Z,4.40
2022-12-19T08:51:51.097Z,4.40
2022-12-19T08:54:19.030Z,4.40
2022-12-19T08:56:47.242Z,4.40
2022-12-19T08:59:14.949Z,4.40
2022-12-19T09:01:42.349Z,4.40
2022-12-19T09:05:52.924Z,4.40
2022-12-19T09:06:38.172Z,4.50
2022-12-19T09:09:05.927Z,4.50
2022-12-19T09:11:33.491Z,4.50
2022-12-19T09:14:01.762Z,4.60
2022-12-19T09:16:29.544Z,4.50
2022-12-19T09:18:56.871Z,4.60
2022-12-19T09:21:24.419Z,4.50
2022-12-19T09:23:54.696Z,4.70
2022-12-19T09:26:22.230Z,4.70
2022-12-19T09:28:49.804Z,4.70
2022-12-19T09:31:17.379Z,4.90
2022-12-19T09:33:45.075Z,4.80
2022-12-19T09:36:13.144Z,5.00
2022-12-19T09:38:40.727Z,4.90
2022-12-19T09:41:14.219Z,4.90
2022-12-19T09:43:49.357Z,4.70
2022-12-19T09:46:19.885Z,4.70
2022-12-19T09:48:54.051Z,4.60
2022-12-19T09:51:23.620Z,4.60
2022-12-19T09:53:59.905Z,4.50
2022-12-19T09:56:27.430Z,4.50
2022-12-19T09:58:55.874Z,4.50
2022-12-19T10:01:24.197Z,4.70
2022-12-19T10:04:07.047Z,4.70
2022-12-19T10:07:22.063Z,4.70
2022-12-19T10:10:04.308Z,4.70
2022-12-19T10:12:43.381Z,4.90
2022-12-19T10:14:12.359Z,4.90
2022-12-19T10:17:23.241Z,4.90
2022-12-19T10:19:40.709Z,4.90
2022-12-19T10:22:19.372Z,4.90
2022-12-19T10:25:02.053Z,4.90
2022-12-19T10:27:21.375Z,4.90
2022-12-19T10:29:58.160Z,4.90
2022-12-19T10:32:41.194Z,4.90
2022-12-19T10:35:08.723Z,4.90
2022-12-19T10:37:47.273Z,4.90
2022-12-19T10:40:24.767Z,5.00
2022-12-19T10:43:06.543Z,5.00
2022-12-19T10:45:34.520Z,5.00
2022-12-19T10:48:02.074Z,5.30
2022-12-19T10:50:32.373Z,5.40
2022-12-19T10:53:10.082Z,5.50
2022-12-19T10:55:50.429Z,5.60
2022-12-19T10:58:23.683Z,5.50
2022-12-19T11:01:06.637Z,5.60
2022-12-19T11:03:34.311Z,5.70
2022-12-19T11:06:01.737Z,5.70
2022-12-19T11:08:29.248Z,5.80
2022-12-19T11:14:28.163Z,6.10
2022-12-19T11:18:34.011Z,6.20
2022-12-19T11:19:44.559Z,6.20
2022-12-19T11:27:25.105Z,6.20
2022-12-19T11:29:26.685Z,6.20
2022-12-19T11:29:34.919Z,6.30
2022-12-19T11:30:47.112Z,6.30
2022-12-19T11:30:47.268Z,6.30
2022-12-19T11:33:37.833Z,6.20
2022-12-19T11:36:05.324Z,6.20
2022-12-19T11:38:35.341Z,6.20
2022-12-19T11:41:02.876Z,6.30
2022-12-19T11:43:46.731Z,6.30
2022-12-19T11:46:03.714Z,6.40
2022-12-19T11:48:36.964Z,6.50
2022-12-19T11:51:33.929Z,6.50
2022-12-19T11:54:01.470Z,6.50
2022-12-19T11:56:29.803Z,6.40
2022-12-19T11:59:18.335Z,6.40
2022-12-19T12:02:01.009Z,6.40
2022-12-19T12:04:43.565Z,6.50
2022-12-19T12:07:32.491Z,6.40
2022-12-19T12:14:54.955Z,6.50
2022-12-19T12:20:40.099Z,6.60
2022-12-19T12:29:15.757Z,6.70
2022-12-19T12:31:09.512Z,6.70
2022-12-19T12:31:21.634Z,6.90
2022-12-19T12:31:58.825Z,7.10
2022-12-19T12:32:04.343Z,6.90
2022-12-19T12:32:06.316Z,7.00
2022-12-19T12:35:31.720Z,6.90
2022-12-19T12:42:05.546Z,6.70
2022-12-19T12:44:33.759Z,6.70
2022-12-19T12:47:09.427Z,6.70
2022-12-19T12:49:42.724Z,6.70
2022-12-19T12:52:10.257Z,6.70
2022-12-19T12:54:38.564Z,6.70
2022-12-19T12:57:06.755Z,6.70
2022-12-19T12:59:34.286Z,6.70
2022-12-19T13:02:02.049Z,6.70
2022-12-19T13:04:32.386Z,6.70
2022-12-19T13:07:02.574Z,6.70
2022-12-19T13:09:30.874Z,6.70
2022-12-19T13:12:22.465Z,6.60
2022-12-19T13:14:50.803Z,6.60
2022-12-19T13:17:33.177Z,6.60
2022-12-19T13:20:04.121Z,6.50
2022-12-19T13:22:31.751Z,6.50
2022-12-19T13:25:01.306Z,6.60
2022-12-19T13:27:31.895Z,6.60
2022-12-19T13:30:00.253Z,6.60
2022-12-19T13:32:27.775Z,6.60
2022-12-19T13:35:20.585Z,6.60
2022-12-19T13:39:52.445Z,6.60
2022-12-19T13:40:32.506Z,6.60
2022-12-19T13:43:20.650Z,6.60
2022-12-19T13:46:03.244Z,6.60
2022-12-19T13:48:30.776Z,6.60
2022-12-19T13:50:58.311Z,6.60
2022-12-19T13:53:25.845Z,6.60
2022-12-19T13:56:05.804Z,6.60
2022-12-19T13:58:33.312Z,6.50
2022-12-19T14:01:03.916Z,6.50
2022-12-19T14:03:31.603Z,6.50
2022-12-19T14:06:17.659Z,6.50
2022-12-19T14:08:32.407Z,6.50
2022-12-19T14:11:37.292Z,6.50
2022-12-19T14:14:00.452Z,6.50
2022-12-19T14:16:19.089Z,6.50
2022-12-19T14:18:49.250Z,6.50
2022-12-19T14:22:09.846Z,6.50
2022-12-19T14:23:50.332Z,6.50
2022-12-19T14:28:18.040Z,6.40
2022-12-19T14:28:59.644Z,6.40
2022-12-19T14:31:27.964Z,6.30
2022-12-19T14:36:26.200Z,6.30
2022-12-19T14:39:23.727Z,6.20
2022-12-19T14:41:21.065Z,6.30
2022-12-19T14:43:59.872Z,6.20
2022-12-19T14:54:01.314Z,6.20
2022-12-19T14:54:07.205Z,6.10
2022-12-19T14:54:34.716Z,6.10
2022-12-19T14:55:17.221Z,6.40
2022-12-19T14:56:59.894Z,6.40
2022-12-19T14:59:28.667Z,6.30
2022-12-19T15:02:00.014Z,6.40
2022-12-19T15:04:49.313Z,6.30
2022-12-19T15:07:07.657Z,6.30
2022-12-19T15:11:06.148Z,6.20
2022-12-19T15:13:13.150Z,6.20
2022-12-19T15:14:56.535Z,6.20
2022-12-19T15:17:21.585Z,6.10
2022-12-19T15:19:46.584Z,6.10
2022-12-19T15:22:14.130Z,6.10
2022-12-19T15:24:42.455Z,6.10
2022-12-19T15:27:13.209Z,6.10
2022-12-19T15:29:40.742Z,6.00
2022-12-19T15:32:13.994Z,6.00
2022-12-19T15:34:50.724Z,6.20
2022-12-19T15:37:12.783Z,6.20
2022-12-19T15:39:40.329Z,6.20
2022-12-19T15:42:07.894Z,6.20
2022-12-19T15:44:35.399Z,6.20
2022-12-19T15:47:03.065Z,6.10
2022-12-19T15:49:30.515Z,6.10
2022-12-19T15:51:58.052Z,6.00
2022-12-19T15:56:54.176Z,6.20
2022-12-19T15:59:37.388Z,6.10
2022-12-19T16:02:04.367Z,6.00
2022-12-19T16:04:32.101Z,6.00
2022-12-19T16:07:00.523Z,6.00
2022-12-19T16:09:28.075Z,6.20
2022-12-19T16:11:55.612Z,6.20
2022-12-19T16:14:23.204Z,6.30
2022-12-19T16:16:50.801Z,6.30
2022-12-19T16:19:25.089Z,6.30
2022-12-19T16:21:54.493Z,6.30
2022-12-19T16:24:22.019Z,6.30
2022-12-19T16:26:56.171Z,6.40
2022-12-19T16:29:23.751Z,6.40
2022-12-19T16:31:51.365Z,6.50
2022-12-19T16:34:18.890Z,6.50
2022-12-19T16:36:46.474Z,6.60
2022-12-19T16:39:14.823Z,6.80
2022-12-19T16:41:43.728Z,6.80
2022-12-19T16:44:19.516Z,6.90
2022-12-19T16:46:50.659Z,7.10
2022-12-19T16:49:13.426Z,7.10
2022-12-19T16:51:41.279Z,7.10
2022-12-19T16:54:08.819Z,7.40
2022-12-19T16:56:39.620Z,7.40
2022-12-19T16:59:07.158Z,7.30
2022-12-19T17:01:34.778Z,7.30
2022-12-19T17:04:03.184Z,7.30
2022-12-19T17:06:30.765Z,7.30
2022-12-19T17:08:58.308Z,7.20
2022-12-19T17:11:25.861Z,7.30
2022-12-19T17:13:53.408Z,7.20
2022-12-19T17:16:20.972Z,7.20
2022-12-19T17:18:49.228Z,7.30
2022-12-19T17:21:16.795Z,7.20
2022-12-19T17:23:44.313Z,7.30
2022-12-19T17:26:17.457Z,7.30
2022-12-19T17:28:39.440Z,7.30
2022-12-19T17:31:07.758Z,7.30
2022-12-19T17:33:35.312Z,7.30
2022-12-19T17:36:02.881Z,7.40
2022-12-19T17:38:30.417Z,7.40
2022-12-19T17:40:58.765Z,7.50
2022-12-19T17:43:26.582Z,7.50
2022-12-19T17:45:54.234Z,7.80
2022-12-19T17:48:27.374Z,7.80
2022-12-19T17:50:55.729Z,7.90
2022-12-19T17:53:23.262Z,7.90
2022-12-19T17:55:50.800Z,7.90
2022-12-19T17:58:19.137Z,7.90
2022-12-19T18:00:49.385Z,7.90
2022-12-19T18:03:25.743Z,7.90
2022-12-19T18:05:53.185Z,7.90
2022-12-19T18:08:26.387Z,8.10
2022-12-19T18:10:54.999Z,8.60
2022-12-19T18:13:22.527Z,8.60
2022-12-19T18:15:50.114Z,8.50
2022-12-19T18:18:17.646Z,8.40
2022-12-19T18:20:46.055Z,8.50
2022-12-19T18:23:16.408Z,8.50
2022-12-19T18:25:44.267Z,8.50
2022-12-19T18:28:11.784Z,8.40
2022-12-19T18:30:40.173Z,8.30
2022-12-19T18:33:07.686Z,8.30
2022-12-19T18:35:37.943Z,8.20
2022-12-19T18:38:05.481Z,8.20
2022-12-19T18:40:33.053Z,8.20
2022-12-19T18:43:00.596Z,8.20
2022-12-19T18:45:28.160Z,8.40
2022-12-19T18:47:55.693Z,8.40
2022-12-19T18:50:23.268Z,8.60
2022-12-19T18:52:51.354Z,8.70
2022-12-19T18:55:21.908Z,8.60
2022-12-19T18:57:50.209Z,8.50
2022-12-19T19:00:17.836Z,8.50
2022-12-19T19:02:52.065Z,8.50
2022-12-19T19:05:22.567Z,8.40
2022-12-19T19:07:50.106Z,8.70
2022-12-19T19:10:20.599Z,8.70
2022-12-19T19:12:48.129Z,8.90
2022-12-19T19:15:16.438Z,9.00
2022-12-19T19:17:44.291Z,9.00
2022-12-19T19:20:11.913Z,8.90
2022-12-19T19:22:39.443Z,8.80
2022-12-19T19:25:07.021Z,8.70
2022-12-19T19:27:34.539Z,8.90
2022-12-19T19:30:02.072Z,8.90
2022-12-19T19:32:30.402Z,8.80
2022-12-19T19:34:57.994Z,8.80
2022-12-19T19:37:25.587Z,8.80
2022-12-19T19:39:53.152Z,9.00
2022-12-19T19:42:20.710Z,9.00
2022-12-19T19:44:48.279Z,8.90
2022-12-19T19:47:15.856Z,8.70
2022-12-19T19:49:43.406Z,8.60
2022-12-19T19:52:10.927Z,8.60
2022-12-19T19:54:39.268Z,8.60
2022-12-19T19:57:06.864Z,8.60
2022-12-19T19:59:35.149Z,8.50
2022-12-19T20:02:02.814Z,8.50
2022-12-19T20:04:30.374Z,8.50
2022-12-19T20:06:57.892Z,8.50
2022-12-19T20:09:25.461Z,8.40
2022-12-19T20:11:53.791Z,8.20
2022-12-19T20:14:21.609Z,8.10
2022-12-19T20:16:49.281Z,8.00
2022-12-19T20:19:16.767Z,7.80
2022-12-19T20:21:44.312Z,7.60
2022-12-19T20:24:11.920Z,7.50
2022-12-19T20:26:39.466Z,7.30
2022-12-19T20:29:06.994Z,7.20
2022-12-19T20:31:35.241Z,7.10
2022-12-19T20:34:02.745Z,6.90
2022-12-19T20:36:30.288Z,7.10
2022-12-19T20:38:57.884Z,7.00
2022-12-19T20:41:25.427Z,6.80
2022-12-19T20:43:52.963Z,7.00
2022-12-19T20:46:20.546Z,7.20
2022-12-19T20:48:48.061Z,7.20
2022-12-19T20:51:16.360Z,7.00
2022-12-19T20:53:45.631Z,6.90
2022-12-19T20:56:13.084Z,6.90
2022-12-19T20:58:41.465Z,6.80
2022-12-19T21:01:13.327Z,6.70
2022-12-19T21:03:41.070Z,6.70
2022-12-19T21:06:08.398Z,6.60
2022-12-19T21:08:36.351Z,6.60
2022-12-19T21:11:03.875Z,6.50
2022-12-19T21:13:32.167Z,6.40
2022-12-19T21:15:59.853Z,6.40
2022-12-19T21:18:27.288Z,6.40
2022-12-19T21:20:54.822Z,6.30
2022-12-19T21:23:22.431Z,6.40
2022-12-19T21:25:49.937Z,6.40
2022-12-19T21:28:17.467Z,6.40
2022-12-19T21:30:45.093Z,6.40
2022-12-19T21:33:12.664Z,6.50
2022-12-19T21:35:40.199Z,6.70
2022-12-19T21:38:07.773Z,6.80
2022-12-19T21:40:35.295Z,6.70
2022-12-19T21:43:11.144Z,6.70
2022-12-19T21:45:31.183Z,6.70
2022-12-19T21:47:58.712Z,6.70
2022-12-19T21:50:26.247Z,6.60
2022-12-19T21:52:56.033Z,6.50
2022-12-19T21:55:22.151Z,6.50
2022-12-19T21:57:49.635Z,6.50
2022-12-19T22:00:17.257Z,6.50
2022-12-19T22:03:01.964Z,6.40
2022-12-19T22:05:13.069Z,6.40
2022-12-19T22:07:40.639Z,6.40
2022-12-19T22:10:08.406Z,6.40
2022-12-19T22:12:35.920Z,6.40
2022-12-19T22:15:04.308Z,6.30
2022-12-19T22:17:32.621Z,6.30
2022-12-19T22:20:00.171Z,6.20
2022-12-19T22:22:28.035Z,6.20
2022-12-19T22:24:55.573Z,6.20
2022-12-19T22:27:23.854Z,6.20
2022-12-19T22:29:51.419Z,6.20
2022-12-19T22:32:18.944Z,6.40
2022-12-19T22:34:46.470Z,6.50
2022-12-19T22:37:14.120Z,6.50
2022-12-19T22:39:41.579Z,6.40
2022-12-19T22:42:09.103Z,6.70
2022-12-19T22:44:37.692Z,6.90
2022-12-19T22:47:05.214Z,6.90
2022-12-19T22:49:32.739Z,6.80
2022-12-19T22:52:00.308Z,6.70
2022-12-19T22:54:27.836Z,6.70
2022-12-19T22:56:55.364Z,6.60
2022-12-19T22:59:23.690Z,6.60
2022-12-19T23:01:51.364Z,6.50
2022-12-19T23:04:19.641Z,6.50
2022-12-19T23:06:47.077Z,6.50
2022-12-19T23:09:14.603Z,6.50
2022-12-19T23:11:42.919Z,6.50
2022-12-19T23:14:10.479Z,6.50
2022-12-19T23:16:38.079Z,6.50
2022-12-19T23:19:05.540Z,6.50
2022-12-19T23:21:33.162Z,6.50
2022-12-19T23:24:00.670Z,6.50
2022-12-19T23:26:31.638Z,6.70
2022-12-19T23:29:01.931Z,6.70
2022-12-19T23:31:29.545Z,6.70
2022-12-19T23:33:57.024Z,6.70
2022-12-19T23:37:00.371Z,6.70
2022-12-19T23:38:55.083Z,6.90
2022-12-19T23:41:22.608Z,7.00
2022-12-19T23:43:51.937Z,7.00
2022-12-19T23:46:19.583Z,7.00
2022-12-19T23:48:47.765Z,7.10
2022-12-19T23:51:15.337Z,7.10
2022-12-19T23:53:42.854Z,7.10
2022-12-19T23:56:14.090Z,7.20
2022-12-19T23:58:41.677Z,7.10
